Terminal Aerodrome Forecast
Issued by NWS

Home | Current Version | Previous Version | Text Only | Print | Product List | Glossary On
Versions: 1 2 3 4 5 6 7 8 9 10 11 12 13 14 15 16 17
860
FTUS45 KABQ 200643 AAA
TAFGUP
TAF AMD
KGUP 200643Z 2007/2106 24011KT P6SM VCSH SCT015 BKN050
      TEMPO 2007/2009 -RA BKN015
     FM200900 VRB04KT P6SM SCT030 BKN045
      TEMPO 2010/2014 3SM BR OVC011
     FM201600 VRB05KT P6SM SCT020
     FM201900 24007KT P6SM FEW150=

USA.gov is the U.S. government's official web portal to all federal, state and local government web resources and services.